createdAt,value
2024-01-30T00:01:26.994Z,-6.91
2024-01-30T00:03:54.219Z,-6.97
2024-01-30T00:06:25.228Z,-7.00
2024-01-30T00:08:52.348Z,-7.04
2024-01-30T00:11:19.381Z,-7.05
2024-01-30T00:13:46.467Z,-7.06
2024-01-30T00:16:23.447Z,-8.27
2024-01-30T00:18:52.011Z,-7.18
2024-01-30T00:21:19.871Z,-7.21
2024-01-30T00:23:47.440Z,-7.68
2024-01-30T00:26:15.949Z,-7.19
2024-01-30T00:28:43.567Z,-7.20
2024-01-30T00:31:13.969Z,-7.70
2024-01-30T00:33:41.819Z,-7.18
2024-01-30T00:36:10.607Z,-7.30
2024-01-30T00:38:38.543Z,-7.24
2024-01-30T00:41:05.956Z,-7.37
2024-01-30T00:43:33.107Z,-7.25
2024-01-30T00:46:00.569Z,-7.37
2024-01-30T00:48:27.777Z,-7.86
2024-01-30T00:50:54.911Z,-7.24
2024-01-30T00:53:22.915Z,-7.23
2024-01-30T00:55:49.981Z,-7.31
2024-01-30T00:58:17.970Z,-7.79
2024-01-30T01:00:45.137Z,-7.38
2024-01-30T01:03:12.305Z,-7.49
2024-01-30T01:05:40.099Z,-7.51
2024-01-30T01:08:07.607Z,-7.54
2024-01-30T01:10:34.797Z,-7.51
2024-01-30T01:13:01.986Z,-7.57
2024-01-30T01:15:30.562Z,-7.55
2024-01-30T01:17:58.491Z,-7.60
2024-01-30T01:20:25.700Z,-7.67
2024-01-30T01:22:53.836Z,-7.68
2024-01-30T01:25:21.045Z,-7.93
2024-01-30T01:27:52.844Z,-7.63
2024-01-30T01:30:22.921Z,-7.62
2024-01-30T01:32:57.648Z,-7.49
2024-01-30T01:35:26.291Z,-7.52
2024-01-30T01:37:57.266Z,-7.52
2024-01-30T01:40:28.594Z,-7.61
2024-01-30T01:42:57.920Z,-7.64
2024-01-30T01:45:26.016Z,-7.68
2024-01-30T01:47:53.827Z,-8.48
2024-01-30T01:50:23.313Z,-7.74
2024-01-30T01:52:52.092Z,-7.67
2024-01-30T01:55:25.905Z,-7.63
2024-01-30T01:57:54.922Z,-8.03
2024-01-30T02:00:22.852Z,-7.68
2024-01-30T02:02:50.705Z,-7.72
2024-01-30T02:05:18.092Z,-7.82
2024-01-30T02:07:45.450Z,-7.88
2024-01-30T02:10:12.908Z,-7.80
2024-01-30T02:12:40.806Z,-7.70
2024-01-30T02:15:09.269Z,-7.82
2024-01-30T02:17:36.568Z,-7.74
2024-01-30T02:20:04.824Z,-7.82
2024-01-30T02:22:35.139Z,-7.85
2024-01-30T02:25:02.433Z,-7.90
2024-01-30T02:27:30.154Z,-7.93
2024-01-30T02:29:57.194Z,-8.00
2024-01-30T02:32:24.246Z,-8.03
2024-01-30T02:34:51.317Z,-8.01
2024-01-30T02:37:18.551Z,-7.98
2024-01-30T02:39:45.766Z,-7.96
2024-01-30T02:42:12.818Z,-7.97
2024-01-30T02:44:39.873Z,-8.21
2024-01-30T02:47:06.945Z,-8.06
2024-01-30T02:49:34.193Z,-8.14
2024-01-30T02:52:01.413Z,-8.11
2024-01-30T02:54:28.644Z,-8.18
2024-01-30T02:56:55.734Z,-8.27
2024-01-30T02:59:23.196Z,-8.21
2024-01-30T03:01:50.453Z,-8.20
2024-01-30T03:04:18.501Z,-8.21
2024-01-30T03:06:47.800Z,-8.24
2024-01-30T03:09:17.693Z,-8.21
2024-01-30T03:11:45.188Z,-8.11
2024-01-30T03:14:12.691Z,-8.04
2024-01-30T03:16:39.849Z,-8.43
2024-01-30T03:19:11.124Z,-7.84
2024-01-30T03:21:38.481Z,-7.87
2024-01-30T03:24:05.956Z,-7.93
2024-01-30T03:26:33.571Z,-7.99
2024-01-30T03:29:00.692Z,-8.02
2024-01-30T03:31:27.939Z,-8.22
2024-01-30T03:33:55.270Z,-8.48
2024-01-30T03:36:23.004Z,-8.06
2024-01-30T03:38:50.033Z,-8.05
2024-01-30T03:41:17.118Z,-8.00
2024-01-30T03:43:44.265Z,-7.99
2024-01-30T03:46:12.949Z,-8.01
2024-01-30T03:48:40.483Z,-8.18
2024-01-30T03:51:07.583Z,-8.18
2024-01-30T03:53:35.329Z,-8.28
2024-01-30T03:56:02.338Z,-8.25
2024-01-30T03:58:29.417Z,-8.25
2024-01-30T04:00:56.688Z,-8.22
2024-01-30T04:03:23.830Z,-8.25
2024-01-30T04:05:52.196Z,-8.28
2024-01-30T04:08:19.540Z,-8.34
2024-01-30T04:10:47.648Z,-8.37
2024-01-30T04:13:14.720Z,-8.35
2024-01-30T04:15:41.903Z,-8.45
2024-01-30T04:18:09.208Z,-8.84
2024-01-30T04:20:36.265Z,-8.34
2024-01-30T04:23:03.446Z,-8.26
2024-01-30T04:25:30.508Z,-8.24
2024-01-30T04:27:57.594Z,-8.26
2024-01-30T04:30:24.657Z,-8.24
2024-01-30T04:32:51.829Z,-8.30
2024-01-30T04:35:18.995Z,-8.31
2024-01-30T04:37:46.081Z,-8.33
2024-01-30T04:40:13.623Z,-8.30
2024-01-30T04:42:40.759Z,-8.34
2024-01-30T04:45:08.781Z,-8.38
2024-01-30T04:47:35.889Z,-8.33
2024-01-30T04:50:05.789Z,-8.34
2024-01-30T04:52:33.062Z,-8.39
2024-01-30T04:55:00.428Z,-8.41
2024-01-30T04:57:27.755Z,-8.44
2024-01-30T04:59:54.933Z,-8.44
2024-01-30T05:02:22.062Z,-8.51
2024-01-30T05:04:49.290Z,-8.50
2024-01-30T05:07:16.352Z,-8.53
2024-01-30T05:09:43.404Z,-8.52
2024-01-30T05:12:10.423Z,-8.52
2024-01-30T05:14:37.732Z,-8.50
2024-01-30T05:17:05.031Z,-8.58
2024-01-30T05:19:32.191Z,-8.58
2024-01-30T05:22:00.025Z,-8.59
2024-01-30T05:24:28.179Z,-8.64
2024-01-30T05:26:55.363Z,-8.55
2024-01-30T05:29:23.202Z,-8.57
2024-01-30T05:31:50.523Z,-8.78
2024-01-30T05:34:17.834Z,-8.50
2024-01-30T05:36:45.415Z,-8.29
2024-01-30T05:39:12.454Z,-8.36
2024-01-30T05:41:39.703Z,-8.40
2024-01-30T05:44:06.835Z,-8.36
2024-01-30T05:46:35.180Z,-8.43
2024-01-30T05:49:02.283Z,-8.28
2024-01-30T05:51:29.595Z,-8.37
2024-01-30T05:53:56.725Z,-8.97
2024-01-30T05:56:23.855Z,-8.42
2024-01-30T05:58:53.842Z,-8.44
2024-01-30T06:01:21.307Z,-8.36
2024-01-30T06:03:48.939Z,-8.29
2024-01-30T06:06:16.749Z,-8.23
2024-01-30T06:08:43.828Z,-8.26
2024-01-30T06:11:13.150Z,-8.21
2024-01-30T06:13:40.187Z,-8.22
2024-01-30T06:16:11.850Z,-9.03
2024-01-30T06:18:38.951Z,-8.27
2024-01-30T06:21:07.613Z,-8.31
2024-01-30T06:23:35.359Z,-8.31
2024-01-30T06:26:02.405Z,-8.33
2024-01-30T06:28:29.516Z,-8.32
2024-01-30T06:30:56.888Z,-8.42
2024-01-30T06:33:24.078Z,-8.56
2024-01-30T06:35:51.446Z,-8.56
2024-01-30T06:38:18.589Z,-8.59
2024-01-30T06:40:45.629Z,-8.68
2024-01-30T06:43:13.180Z,-8.64
2024-01-30T06:45:40.243Z,-8.85
2024-01-30T06:48:08.918Z,-8.67
2024-01-30T06:50:36.117Z,-9.07
2024-01-30T06:53:03.300Z,-8.74
2024-01-30T06:55:30.642Z,-8.66
2024-01-30T06:57:57.817Z,-8.63
2024-01-30T07:00:25.066Z,-8.60
2024-01-30T07:02:52.214Z,-8.69
2024-01-30T07:05:19.527Z,-8.90
2024-01-30T07:07:46.630Z,-8.59
2024-01-30T07:10:14.228Z,-8.61
2024-01-30T07:12:41.400Z,-8.67
2024-01-30T07:15:11.740Z,-8.65
2024-01-30T07:17:39.111Z,-8.62
2024-01-30T07:20:07.426Z,-8.58
2024-01-30T07:22:34.877Z,-8.61
2024-01-30T07:25:02.279Z,-8.50
2024-01-30T07:27:29.523Z,-8.40
2024-01-30T07:29:56.758Z,-8.79
2024-01-30T07:32:24.953Z,-8.66
2024-01-30T07:35:02.493Z,-8.24
2024-01-30T07:37:34.740Z,-8.17
2024-01-30T07:40:03.930Z,-8.98
2024-01-30T07:42:31.074Z,-8.13
2024-01-30T07:44:58.173Z,-8.12
2024-01-30T07:47:25.827Z,-8.08
2024-01-30T07:49:53.826Z,-8.33
2024-01-30T07:52:20.998Z,-8.07
2024-01-30T07:54:48.514Z,-7.90
2024-01-30T07:57:15.611Z,-7.91
2024-01-30T07:59:46.390Z,-7.71
2024-01-30T08:02:14.465Z,-7.62
2024-01-30T08:04:42.238Z,-7.59
2024-01-30T08:07:09.693Z,-7.52
2024-01-30T08:09:36.919Z,-7.52
2024-01-30T08:12:04.488Z,-7.47
2024-01-30T08:14:31.547Z,-7.41
2024-01-30T08:16:58.728Z,-8.09
2024-01-30T08:19:26.264Z,-7.22
2024-01-30T08:21:53.595Z,-7.13
2024-01-30T08:24:20.961Z,-7.09
2024-01-30T08:26:48.072Z,-6.98
2024-01-30T08:29:15.324Z,-7.09
2024-01-30T08:31:42.526Z,-7.03
2024-01-30T08:34:09.692Z,-6.95
2024-01-30T08:36:37.467Z,-6.85
2024-01-30T08:39:06.418Z,-6.82
2024-01-30T08:41:33.797Z,-6.72
2024-01-30T08:44:01.189Z,-6.68
2024-01-30T08:46:28.434Z,-6.60
2024-01-30T08:48:55.881Z,-6.62
2024-01-30T08:51:23.106Z,-6.52
2024-01-30T08:53:50.298Z,-6.40
2024-01-30T08:56:18.169Z,-6.39
2024-01-30T08:58:46.003Z,-6.21
2024-01-30T09:01:13.632Z,-6.10
2024-01-30T09:03:42.372Z,-5.85
2024-01-30T09:06:13.077Z,-5.76
2024-01-30T09:08:40.277Z,-5.56
2024-01-30T09:11:14.794Z,-5.66
2024-01-30T09:13:42.386Z,-5.55
2024-01-30T09:16:09.606Z,-5.48
2024-01-30T09:18:37.197Z,-5.56
2024-01-30T09:21:04.441Z,-5.51
2024-01-30T09:23:31.847Z,-5.46
2024-01-30T09:25:58.889Z,-5.54
2024-01-30T09:28:27.757Z,-5.44
2024-01-30T09:30:55.257Z,-5.54
2024-01-30T09:33:22.496Z,-5.48
2024-01-30T09:35:49.735Z,-5.50
2024-01-30T09:38:17.112Z,-5.52
2024-01-30T09:40:45.318Z,-5.40
2024-01-30T09:43:18.257Z,-5.39
2024-01-30T09:45:47.763Z,-5.28
2024-01-30T09:48:16.283Z,-5.27
2024-01-30T09:50:43.533Z,-5.23
2024-01-30T09:53:10.749Z,-4.93
2024-01-30T09:55:38.175Z,-4.93
2024-01-30T09:58:06.982Z,-4.83
2024-01-30T10:00:34.088Z,-4.72
2024-01-30T10:03:01.205Z,-4.57
2024-01-30T10:05:29.943Z,-4.33
2024-01-30T10:07:58.466Z,-4.32
2024-01-30T10:10:26.068Z,-4.24
2024-01-30T10:12:53.259Z,-4.38
2024-01-30T10:15:30.155Z,-4.48
2024-01-30T10:17:57.751Z,-4.22
2024-01-30T10:20:26.349Z,-4.18
2024-01-30T10:22:53.619Z,-4.15
2024-01-30T10:25:22.602Z,-3.92
2024-01-30T10:27:55.632Z,-4.08
2024-01-30T10:30:24.179Z,-3.67
2024-01-30T10:32:52.701Z,-3.51
2024-01-30T10:35:20.242Z,-3.55
2024-01-30T10:37:50.542Z,-3.94
2024-01-30T10:40:18.428Z,-3.33
2024-01-30T10:42:47.100Z,-3.16
2024-01-30T10:45:16.942Z,-2.91
2024-01-30T10:47:51.515Z,-3.07
2024-01-30T10:50:19.817Z,-2.93
2024-01-30T10:52:48.414Z,-2.91
2024-01-30T10:55:17.211Z,-3.14
2024-01-30T10:57:44.789Z,-2.89
2024-01-30T11:00:16.641Z,-2.80
2024-01-30T11:02:46.135Z,-2.69
2024-01-30T11:05:14.328Z,-3.12
2024-01-30T11:07:44.547Z,-2.56
2024-01-30T11:10:16.108Z,-2.54
2024-01-30T11:12:45.141Z,-2.51
2024-01-30T11:15:16.943Z,-2.44
2024-01-30T11:17:49.933Z,-2.34
2024-01-30T11:20:37.849Z,-2.28
2024-01-30T11:23:07.470Z,-2.13
2024-01-30T11:25:35.554Z,-2.67
2024-01-30T11:28:03.716Z,-2.09
2024-01-30T11:30:33.821Z,-1.96
2024-01-30T11:33:08.542Z,-1.92
2024-01-30T11:35:37.751Z,-1.92
2024-01-30T11:38:05.766Z,-1.74
2024-01-30T11:40:34.706Z,-1.71
2024-01-30T11:43:04.307Z,-1.64
2024-01-30T11:45:32.525Z,-1.54
2024-01-30T11:48:04.871Z,-1.86
2024-01-30T11:50:33.823Z,-1.30
2024-01-30T11:53:01.825Z,-1.26
2024-01-30T11:55:33.918Z,-1.25
2024-01-30T11:58:02.738Z,-1.24
2024-01-30T12:00:32.169Z,-1.01
2024-01-30T12:03:01.705Z,-1.08
2024-01-30T12:05:30.460Z,-0.88
2024-01-30T12:08:00.374Z,-0.77
2024-01-30T12:10:28.729Z,-0.61
2024-01-30T12:12:56.702Z,-0.45
2024-01-30T12:15:24.250Z,-0.64
2024-01-30T12:17:51.734Z,-0.86
2024-01-30T12:20:20.952Z,-0.44
2024-01-30T12:22:50.091Z,-0.52
2024-01-30T12:25:22.123Z,-0.42
2024-01-30T12:27:52.200Z,-0.34
2024-01-30T12:30:21.294Z,-0.29
2024-01-30T12:32:51.398Z,-0.17
2024-01-30T12:35:20.649Z,-0.26
2024-01-30T12:37:49.342Z,-0.11
2024-01-30T12:40:16.937Z,-0.20
2024-01-30T12:42:49.936Z,-0.08
2024-01-30T12:45:17.660Z,0.03
2024-01-30T12:47:44.801Z,-0.08
2024-01-30T12:50:13.493Z,0.13
2024-01-30T12:52:40.652Z,0.18
2024-01-30T12:55:07.741Z,0.26
2024-01-30T12:57:34.840Z,0.30
2024-01-30T13:00:03.710Z,0.35
2024-01-30T13:02:37.802Z,0.19
2024-01-30T13:05:05.609Z,0.23
2024-01-30T13:07:32.921Z,0.38
2024-01-30T13:10:04.643Z,0.37
2024-01-30T13:12:33.535Z,0.47
2024-01-30T13:15:05.102Z,0.66
2024-01-30T13:17:34.267Z,0.31
2024-01-30T13:20:05.247Z,0.84
2024-01-30T13:22:39.537Z,0.90
2024-01-30T13:25:07.045Z,1.04
2024-01-30T13:27:34.217Z,1.13
2024-01-30T13:30:01.348Z,1.12
2024-01-30T13:32:28.750Z,1.15
2024-01-30T13:34:55.981Z,1.16
2024-01-30T13:37:25.145Z,1.07
2024-01-30T13:39:52.476Z,1.18
2024-01-30T13:42:20.149Z,1.15
2024-01-30T13:44:47.305Z,1.06
2024-01-30T13:47:14.443Z,1.13
2024-01-30T13:49:41.573Z,1.13
2024-01-30T13:52:09.563Z,0.71
2024-01-30T13:54:36.712Z,1.16
2024-01-30T13:57:03.836Z,1.04
2024-01-30T13:59:30.958Z,1.33
2024-01-30T14:01:59.123Z,1.24
2024-01-30T14:04:26.550Z,1.20
2024-01-30T14:07:00.820Z,1.25
2024-01-30T14:09:33.259Z,1.07
2024-01-30T14:12:00.961Z,1.12
2024-01-30T14:14:28.067Z,1.08
2024-01-30T14:16:55.196Z,1.02
2024-01-30T14:19:23.088Z,1.02
2024-01-30T14:21:50.528Z,0.69
2024-01-30T14:24:17.623Z,0.96
2024-01-30T14:26:45.416Z,0.91
2024-01-30T14:29:12.517Z,0.85
2024-01-30T14:31:39.692Z,0.78
2024-01-30T14:34:06.972Z,0.79
2024-01-30T14:36:34.169Z,0.27
2024-01-30T14:39:01.245Z,0.78
2024-01-30T14:41:29.551Z,0.76
2024-01-30T14:43:56.797Z,0.31
2024-01-30T14:46:23.957Z,0.67
2024-01-30T14:48:52.778Z,0.64
2024-01-30T14:51:19.898Z,0.61
2024-01-30T14:53:46.940Z,0.60
2024-01-30T14:56:14.849Z,0.62
2024-01-30T14:58:42.398Z,0.59
2024-01-30T15:01:09.717Z,0.63
2024-01-30T15:03:37.054Z,0.70
2024-01-30T15:06:06.081Z,0.73
2024-01-30T15:08:34.283Z,0.77
2024-01-30T15:11:02.185Z,0.84
2024-01-30T15:13:29.669Z,0.79
2024-01-30T15:15:57.174Z,0.85
2024-01-30T15:18:24.358Z,0.88
2024-01-30T15:20:51.540Z,0.81
2024-01-30T15:23:18.554Z,0.86
2024-01-30T15:25:45.675Z,0.86
2024-01-30T15:28:12.883Z,0.80
2024-01-30T15:30:40.078Z,0.71
2024-01-30T15:33:07.088Z,0.66
2024-01-30T15:35:34.232Z,0.57
2024-01-30T15:38:01.443Z,0.29
2024-01-30T15:40:29.596Z,0.39
2024-01-30T15:42:56.767Z,0.36
2024-01-30T15:45:25.304Z,0.29
2024-01-30T15:47:53.049Z,0.39
2024-01-30T15:50:20.957Z,0.29
2024-01-30T15:52:48.754Z,0.10
2024-01-30T15:55:16.552Z,0.32
2024-01-30T15:57:43.879Z,0.31
2024-01-30T16:00:13.777Z,0.31
2024-01-30T16:02:41.019Z,0.32
2024-01-30T16:05:11.535Z,0.28
2024-01-30T16:07:39.330Z,0.38
2024-01-30T16:10:08.384Z,-0.07
2024-01-30T16:12:35.707Z,0.34
2024-01-30T16:15:03.302Z,0.33
2024-01-30T16:17:32.685Z,0.33
2024-01-30T16:20:01.568Z,-0.21
2024-01-30T16:22:29.099Z,-0.11
2024-01-30T16:24:56.210Z,0.13
2024-01-30T16:27:23.972Z,0.14
2024-01-30T16:29:51.015Z,0.09
2024-01-30T16:32:20.274Z,0.12
2024-01-30T16:34:47.364Z,0.09
2024-01-30T16:37:15.327Z,0.11
2024-01-30T16:39:42.770Z,0.12
2024-01-30T16:42:10.000Z,0.14
2024-01-30T16:44:37.148Z,-0.02
2024-01-30T16:47:04.363Z,0.27
2024-01-30T16:49:31.551Z,0.17
2024-01-30T16:52:01.253Z,0.15
2024-01-30T16:54:29.750Z,0.15
2024-01-30T16:56:56.800Z,0.12
2024-01-30T16:59:24.073Z,0.11
2024-01-30T17:01:51.269Z,0.12
2024-01-30T17:04:22.188Z,0.04
2024-01-30T17:06:50.328Z,0.21
2024-01-30T17:09:17.648Z,0.28
2024-01-30T17:11:45.694Z,-0.26
2024-01-30T17:14:12.945Z,0.30
2024-01-30T17:16:40.476Z,0.30
2024-01-30T17:19:08.062Z,0.17
2024-01-30T17:21:37.804Z,0.25
2024-01-30T17:24:05.216Z,0.18
2024-01-30T17:26:32.856Z,0.21
2024-01-30T17:29:00.025Z,0.15
2024-01-30T17:31:27.225Z,0.22
2024-01-30T17:33:54.491Z,0.18
2024-01-30T17:36:23.097Z,0.27
2024-01-30T17:38:50.184Z,0.30
2024-01-30T17:41:17.413Z,0.24
2024-01-30T17:43:45.012Z,0.18
2024-01-30T17:46:12.143Z,-0.02
2024-01-30T17:48:39.289Z,0.21
2024-01-30T17:51:06.535Z,0.21
2024-01-30T17:53:34.382Z,0.25
2024-01-30T17:56:06.519Z,0.18
2024-01-30T17:58:34.066Z,0.28
2024-01-30T18:01:01.737Z,0.26
2024-01-30T18:03:28.954Z,0.29
2024-01-30T18:05:56.420Z,-0.24
2024-01-30T18:08:24.212Z,0.18
2024-01-30T18:10:53.805Z,0.28
2024-01-30T18:13:22.389Z,0.12
2024-01-30T18:15:50.303Z,0.28
2024-01-30T18:18:18.750Z,0.30
2024-01-30T18:20:45.842Z,0.25
2024-01-30T18:23:14.293Z,0.25
2024-01-30T18:25:41.468Z,0.18
2024-01-30T18:28:08.693Z,0.26
2024-01-30T18:30:36.019Z,0.26
2024-01-30T18:33:04.016Z,0.21
2024-01-30T18:35:32.282Z,0.18
2024-01-30T18:38:00.251Z,0.12
2024-01-30T18:40:27.701Z,0.05
2024-01-30T18:42:55.306Z,0.05
2024-01-30T18:45:22.479Z,0.04
2024-01-30T18:47:50.192Z,-0.02
2024-01-30T18:50:17.705Z,-0.03
2024-01-30T18:52:46.801Z,-0.05
2024-01-30T18:55:14.127Z,-0.11
2024-01-30T18:57:41.857Z,-0.10
2024-01-30T19:00:09.390Z,-0.14
2024-01-30T19:02:36.859Z,-0.11
2024-01-30T19:05:05.210Z,-0.47
2024-01-30T19:07:32.395Z,-0.15
2024-01-30T19:09:59.429Z,-0.10
2024-01-30T19:12:26.480Z,-0.36
2024-01-30T19:14:53.889Z,-0.15
2024-01-30T19:17:20.988Z,-0.16
2024-01-30T19:19:48.134Z,-0.31
2024-01-30T19:22:16.103Z,-0.18
2024-01-30T19:24:43.233Z,-0.15
2024-01-30T19:27:10.566Z,-0.21
2024-01-30T19:29:37.587Z,-0.72
2024-01-30T19:32:04.807Z,-0.23
2024-01-30T19:34:32.339Z,-0.24
2024-01-30T19:37:00.740Z,-0.29
2024-01-30T19:39:28.577Z,-0.25
2024-01-30T19:41:55.912Z,-0.29
2024-01-30T19:44:23.251Z,-0.30
2024-01-30T19:46:50.971Z,-0.36
2024-01-30T19:49:18.116Z,-0.28
2024-01-30T19:51:45.668Z,-0.30
2024-01-30T19:54:18.632Z,-0.37
2024-01-30T19:56:46.376Z,-0.31
2024-01-30T19:59:14.122Z,-0.26
2024-01-30T20:01:41.296Z,-0.22
2024-01-30T20:04:08.581Z,-0.25
2024-01-30T20:06:36.258Z,-0.25
2024-01-30T20:09:04.150Z,-0.30
2024-01-30T20:11:31.193Z,-0.33
2024-01-30T20:13:58.637Z,-0.39
2024-01-30T20:16:25.843Z,-0.81
2024-01-30T20:18:53.048Z,-0.54
2024-01-30T20:21:20.390Z,-0.45
2024-01-30T20:23:47.472Z,-0.58
2024-01-30T20:26:14.538Z,-0.86
2024-01-30T20:28:41.835Z,-0.81
2024-01-30T20:31:09.781Z,-0.99
2024-01-30T20:33:38.214Z,-0.59
2024-01-30T20:36:08.634Z,-0.38
2024-01-30T20:38:37.531Z,-0.30
2024-01-30T20:41:09.616Z,-0.31
2024-01-30T20:43:36.674Z,-0.32
2024-01-30T20:46:05.405Z,-0.38
2024-01-30T20:48:33.011Z,-0.94
2024-01-30T20:51:00.278Z,-0.35
2024-01-30T20:53:27.689Z,-0.34
2024-01-30T20:55:54.828Z,-0.33
2024-01-30T20:58:21.967Z,-0.37
2024-01-30T21:00:49.071Z,-0.40
2024-01-30T21:03:16.128Z,-0.33
2024-01-30T21:05:43.432Z,-0.46
2024-01-30T21:08:10.795Z,-0.32
2024-01-30T21:10:38.043Z,-0.40
2024-01-30T21:13:05.433Z,-0.41
2024-01-30T21:15:32.592Z,-0.56
2024-01-30T21:17:59.642Z,-0.86
2024-01-30T21:20:27.075Z,-0.63
2024-01-30T21:22:54.234Z,-0.65
2024-01-30T21:25:21.400Z,-0.51
2024-01-30T21:27:48.909Z,-0.57
2024-01-30T21:30:16.620Z,-0.57
2024-01-30T21:32:43.714Z,-0.63
2024-01-30T21:35:12.535Z,-0.53
2024-01-30T21:37:41.772Z,-0.54
2024-01-30T21:40:09.609Z,-0.52
2024-01-30T21:42:37.598Z,-0.61
2024-01-30T21:45:05.411Z,-0.57
2024-01-30T21:47:32.474Z,-0.60
2024-01-30T21:49:59.660Z,-0.65
2024-01-30T21:52:26.850Z,-0.71
2024-01-30T21:54:54.375Z,-0.64
2024-01-30T21:57:21.551Z,-0.71
2024-01-30T21:59:48.556Z,-0.76
2024-01-30T22:02:15.663Z,-0.87
2024-01-30T22:04:46.202Z,-0.82
2024-01-30T22:07:15.209Z,-0.78
2024-01-30T22:09:42.647Z,-0.75
2024-01-30T22:12:09.851Z,-0.82
2024-01-30T22:14:36.895Z,-0.85
2024-01-30T22:17:04.617Z,-0.87
2024-01-30T22:19:31.963Z,-0.94
2024-01-30T22:21:59.179Z,-0.94
2024-01-30T22:24:26.986Z,-0.96
2024-01-30T22:26:54.027Z,-1.04
2024-01-30T22:29:21.119Z,-1.16
2024-01-30T22:31:48.225Z,-1.21
2024-01-30T22:34:15.691Z,-1.24
2024-01-30T22:36:42.854Z,-1.28
2024-01-30T22:39:10.679Z,-1.14
2024-01-30T22:41:37.780Z,-1.10
2024-01-30T22:44:05.765Z,-1.08
2024-01-30T22:46:33.417Z,-1.07
2024-01-30T22:49:00.772Z,-1.01
2024-01-30T22:51:29.729Z,-1.67
2024-01-30T22:53:57.334Z,-0.96
2024-01-30T22:56:24.448Z,-0.93
2024-01-30T22:58:51.466Z,-0.89
2024-01-30T23:01:18.701Z,-0.92
2024-01-30T23:03:45.803Z,-0.87
2024-01-30T23:06:12.988Z,-0.86
2024-01-30T23:08:40.061Z,-0.98
2024-01-30T23:11:11.664Z,-0.96
2024-01-30T23:13:40.430Z,-1.02
2024-01-30T23:16:07.768Z,-0.96
2024-01-30T23:18:35.043Z,-1.07
2024-01-30T23:21:02.337Z,-0.96
2024-01-30T23:23:29.397Z,-1.08
2024-01-30T23:25:56.511Z,-1.31
2024-01-30T23:28:23.746Z,-1.15
2024-01-30T23:30:50.887Z,-1.02
2024-01-30T23:33:17.954Z,-0.96
2024-01-30T23:35:45.002Z,-1.13
2024-01-30T23:38:12.785Z,-1.10
2024-01-30T23:40:43.319Z,-1.60
2024-01-30T23:43:10.673Z,-0.94
2024-01-30T23:45:37.736Z,-1.11
2024-01-30T23:48:05.185Z,-1.04
2024-01-30T23:50:32.387Z,-1.12
2024-01-30T23:52:59.552Z,-1.17
2024-01-30T23:55:26.687Z,-1.21
2024-01-30T23:57:54.092Z,-1.14
